Time;durP1;ratioP1;P1;durP2;ratioP2;P2;SDS_P1;SDS_P2;PMS_P1;PMS_P2;Temp;Humidity;BMP_temperature;BMP_pressure;BME280_temperature;BME280_humidity;BME280_pressure;Samples;Min_cycle;Max_cycle;Signal;HPM_P1;HPM_P2
2021/10/10 00:01:37;;;;;;;;;;;21.40;57.50;;;;;;5072351;28;19968;-56
2021/10/10 00:04:04;;;;;;;;;;;21.30;57.40;;;;;;5073439;28;19982;-57
2021/10/10 00:06:31;;;;;;;;;;;21.40;57.50;;;;;;5072072;28;19968;-57
2021/10/10 00:08:58;;;;;;;;;;;21.40;57.50;;;;;;5075099;28;19997;-56
2021/10/10 00:11:25;;;;;;;;;;;21.30;57.50;;;;;;5072295;28;19986;-56
2021/10/10 00:13:51;;;;;;;;;;;21.40;57.50;;;;;;5074676;28;19970;-58
2021/10/10 00:16:19;;;;;;;;;;;21.30;57.40;;;;;;5072169;28;19997;-57
2021/10/10 00:18:46;;;;;;;;;;;21.40;57.50;;;;;;5073576;28;20280;-57
2021/10/10 00:21:13;;;;;;;;;;;21.30;57.40;;;;;;5072702;28;19924;-55
2021/10/10 00:23:41;;;;;;;;;;;21.40;57.50;;;;;;5071802;28;19970;-53
2021/10/10 00:26:08;;;;;;;;;;;21.30;57.40;;;;;;5071632;28;20407;-56
2021/10/10 00:28:35;;;;;;;;;;;21.30;57.40;;;;;;5071849;28;20296;-55
2021/10/10 00:31:02;;;;;;;;;;;21.30;57.40;;;;;;5071975;28;20333;-58
2021/10/10 00:33:29;;;;;;;;;;;21.30;57.40;;;;;;5056277;28;19925;-57
2021/10/10 00:35:56;;;;;;;;;;;21.30;57.50;;;;;;5074351;28;20011;-59
2021/10/10 00:38:23;;;;;;;;;;;21.30;57.50;;;;;;5072218;28;19925;-58
2021/10/10 00:40:50;;;;;;;;;;;21.30;57.40;;;;;;5072173;28;19985;-57
2021/10/10 00:43:17;;;;;;;;;;;21.30;57.40;;;;;;5071604;28;19925;-58
2021/10/10 00:45:47;;;;;;;;;;;21.30;57.50;;;;;;5071471;28;19925;-57
2021/10/10 00:48:14;;;;;;;;;;;21.30;57.40;;;;;;5070765;28;19931;-55
2021/10/10 00:50:42;;;;;;;;;;;21.30;57.40;;;;;;5071184;28;19925;-55
2021/10/10 00:53:10;;;;;;;;;;;21.30;57.40;;;;;;5071022;28;19974;-57
2021/10/10 00:55:37;;;;;;;;;;;21.30;57.40;;;;;;5072762;28;19924;-57
2021/10/10 00:58:05;;;;;;;;;;;21.30;57.40;;;;;;5072353;28;19959;-57
2021/10/10 01:00:32;;;;;;;;;;;21.30;57.40;;;;;;5072021;28;19960;-55
2021/10/10 01:03:00;;;;;;;;;;;21.30;57.40;;;;;;5056856;28;19967;-55
2021/10/10 01:05:28;;;;;;;;;;;21.30;57.40;;;;;;5056424;28;19951;-55
2021/10/10 01:07:55;;;;;;;;;;;21.30;57.40;;;;;;5072125;28;19970;-56
2021/10/10 01:10:22;;;;;;;;;;;21.30;57.40;;;;;;5073726;28;19932;-55
2021/10/10 01:12:50;;;;;;;;;;;21.30;57.40;;;;;;5073416;28;20287;-56
2021/10/10 01:15:17;;;;;;;;;;;21.30;57.40;;;;;;5061205;28;19970;-58
2021/10/10 01:17:44;;;;;;;;;;;21.30;57.40;;;;;;5065393;28;20035;-55
2021/10/10 01:20:11;;;;;;;;;;;21.30;57.40;;;;;;5079921;28;19959;-56
2021/10/10 01:22:38;;;;;;;;;;;21.30;57.40;;;;;;5082617;28;19971;-57
2021/10/10 01:25:05;;;;;;;;;;;21.30;57.40;;;;;;5072256;28;20496;-58
2021/10/10 01:27:32;;;;;;;;;;;21.30;57.40;;;;;;5071505;28;19985;-55
2021/10/10 01:29:59;;;;;;;;;;;21.30;57.40;;;;;;5055077;28;19925;-55
2021/10/10 01:32:26;;;;;;;;;;;21.30;57.40;;;;;;5091030;28;19924;-55
2021/10/10 01:34:53;;;;;;;;;;;21.30;57.40;;;;;;5072225;28;19924;-54
2021/10/10 01:37:20;;;;;;;;;;;21.30;57.40;;;;;;5058781;28;20016;-55
2021/10/10 01:39:47;;;;;;;;;;;21.30;57.40;;;;;;5071931;28;19925;-54
2021/10/10 01:42:14;;;;;;;;;;;21.30;57.40;;;;;;5077334;28;19986;-55
2021/10/10 01:44:41;;;;;;;;;;;21.30;57.40;;;;;;5072151;28;19979;-52
2021/10/10 01:47:08;;;;;;;;;;;21.30;57.40;;;;;;5064330;28;19928;-54
2021/10/10 01:49:38;;;;;;;;;;;21.30;57.40;;;;;;5067500;28;19978;-58
2021/10/10 01:52:06;;;;;;;;;;;21.30;57.40;;;;;;5057386;28;19925;-53
2021/10/10 01:54:33;;;;;;;;;;;21.30;57.30;;;;;;5057088;28;19932;-57
2021/10/10 01:57:00;;;;;;;;;;;21.30;57.40;;;;;;5072931;28;19971;-53
2021/10/10 01:59:27;;;;;;;;;;;21.30;57.90;;;;;;5057574;28;20356;-57
2021/10/10 02:01:54;;;;;;;;;;;21.30;57.40;;;;;;5059459;28;19974;-54
2021/10/10 02:04:21;;;;;;;;;;;21.30;57.40;;;;;;5089961;28;20401;-55
2021/10/10 02:06:48;;;;;;;;;;;21.30;57.40;;;;;;5067220;28;19968;-54
2021/10/10 02:09:15;;;;;;;;;;;21.30;57.40;;;;;;5071957;28;19925;-54
2021/10/10 02:11:42;;;;;;;;;;;21.30;57.40;;;;;;5075613;28;19925;-53
2021/10/10 02:14:09;;;;;;;;;;;21.30;57.40;;;;;;5072988;28;19929;-55
2021/10/10 02:16:36;;;;;;;;;;;21.30;57.40;;;;;;5071228;28;19925;-55
2021/10/10 02:19:02;;;;;;;;;;;21.30;57.40;;;;;;5061951;28;19972;-55
2021/10/10 02:21:29;;;;;;;;;;;21.30;57.40;;;;;;5075170;28;19954;-55
2021/10/10 02:23:56;;;;;;;;;;;21.30;57.30;;;;;;5075331;28;19924;-58
2021/10/10 02:26:23;;;;;;;;;;;21.30;57.40;;;;;;5074421;28;20342;-58
2021/10/10 02:28:50;;;;;;;;;;;21.30;57.40;;;;;;5075508;28;20388;-57
2021/10/10 02:31:17;;;;;;;;;;;21.30;57.40;;;;;;5061011;28;19971;-58
2021/10/10 02:33:44;;;;;;;;;;;21.30;57.40;;;;;;5060016;28;19924;-58
2021/10/10 02:36:11;;;;;;;;;;;21.30;57.40;;;;;;5070778;28;19974;-56
2021/10/10 02:38:38;;;;;;;;;;;21.30;57.40;;;;;;5075445;28;19983;-52
2021/10/10 02:41:05;;;;;;;;;;;21.30;57.40;;;;;;5082487;28;20329;-57
2021/10/10 02:43:32;;;;;;;;;;;21.30;57.40;;;;;;5082623;28;19925;-55
2021/10/10 02:45:59;;;;;;;;;;;21.30;57.40;;;;;;5060070;28;20004;-55
2021/10/10 02:48:26;;;;;;;;;;;21.30;57.40;;;;;;5109668;27;19924;-55
2021/10/10 02:50:53;;;;;;;;;;;21.30;57.40;;;;;;5075009;28;20299;-55
2021/10/10 02:53:20;;;;;;;;;;;21.30;57.40;;;;;;5073759;28;19924;-59
2021/10/10 02:55:47;;;;;;;;;;;21.20;57.30;;;;;;5075552;28;19970;-54
2021/10/10 02:58:14;;;;;;;;;;;21.20;57.30;;;;;;5075737;28;19975;-56
2021/10/10 03:00:41;;;;;;;;;;;21.30;57.40;;;;;;5064558;28;19925;-57
2021/10/10 03:03:08;;;;;;;;;;;21.20;57.30;;;;;;5067709;28;19948;-58
2021/10/10 03:05:35;;;;;;;;;;;21.20;57.30;;;;;;5068729;28;19924;-57
2021/10/10 03:08:03;;;;;;;;;;;21.20;57.30;;;;;;5063707;28;20349;-56
2021/10/10 03:10:29;;;;;;;;;;;21.20;57.30;;;;;;5074244;28;20001;-54
2021/10/10 03:12:56;;;;;;;;;;;21.20;57.30;;;;;;5073178;28;19924;-56
2021/10/10 03:15:23;;;;;;;;;;;21.20;57.30;;;;;;5073463;28;19982;-59
2021/10/10 03:17:50;;;;;;;;;;;21.20;57.30;;;;;;5074121;28;19963;-57
2021/10/10 03:20:17;;;;;;;;;;;21.20;57.30;;;;;;5074752;28;19997;-57
2021/10/10 03:22:44;;;;;;;;;;;21.20;57.30;;;;;;5072191;28;19925;-56
2021/10/10 03:25:11;;;;;;;;;;;21.20;57.30;;;;;;5073911;28;19932;-55
2021/10/10 03:27:38;;;;;;;;;;;21.20;57.30;;;;;;5075524;28;19928;-56
2021/10/10 03:30:06;;;;;;;;;;;21.20;57.30;;;;;;5072759;28;19924;-55
2021/10/10 03:32:32;;;;;;;;;;;21.20;57.30;;;;;;5074220;28;19925;-55
2021/10/10 03:34:59;;;;;;;;;;;21.20;57.30;;;;;;5075504;28;19924;-58
2021/10/10 03:37:26;;;;;;;;;;;21.20;57.30;;;;;;5074094;28;20347;-54
2021/10/10 03:39:57;;;;;;;;;;;21.20;57.20;;;;;;5072506;28;20003;-58
2021/10/10 03:42:24;;;;;;;;;;;21.20;57.30;;;;;;5057919;28;19968;-56
2021/10/10 03:44:51;;;;;;;;;;;21.20;57.20;;;;;;5058007;28;19947;-57
2021/10/10 03:47:18;;;;;;;;;;;21.20;57.30;;;;;;5074254;28;20018;-55
2021/10/10 03:49:45;;;;;;;;;;;21.20;57.30;;;;;;5072762;28;20372;-57
2021/10/10 03:52:12;;;;;;;;;;;21.20;57.30;;;;;;5074569;28;20008;-56
2021/10/10 03:57:12;;;;;;;;;;;21.20;57.30;;;;;;5078853;28;19924;-57
2021/10/10 03:59:41;;;;;;;;;;;21.20;57.30;;;;;;5074591;28;20029;-55
2021/10/10 04:02:08;;;;;;;;;;;21.20;57.20;;;;;;5067024;28;19982;-57
2021/10/10 04:04:35;;;;;;;;;;;21.20;57.20;;;;;;5062376;28;19974;-54
2021/10/10 04:07:02;;;;;;;;;;;21.20;57.20;;;;;;5073143;28;19925;-58
2021/10/10 04:09:29;;;;;;;;;;;21.20;57.20;;;;;;5105740;28;19928;-59
2021/10/10 04:11:56;;;;;;;;;;;21.20;57.20;;;;;;5092586;28;20406;-57
2021/10/10 04:14:23;;;;;;;;;;;21.20;57.20;;;;;;5090385;28;20023;-58
2021/10/10 04:16:50;;;;;;;;;;;21.20;57.20;;;;;;5057119;28;19960;-57
2021/10/10 04:19:17;;;;;;;;;;;21.20;57.20;;;;;;5073307;28;19924;-58
2021/10/10 04:21:44;;;;;;;;;;;21.20;57.20;;;;;;5085684;28;19928;-55
2021/10/10 04:24:11;;;;;;;;;;;21.20;57.20;;;;;;5069578;28;20356;-58
2021/10/10 04:26:38;;;;;;;;;;;21.20;57.20;;;;;;5065380;28;19964;-57
2021/10/10 04:29:05;;;;;;;;;;;21.20;57.20;;;;;;5099380;28;19925;-54
2021/10/10 04:31:32;;;;;;;;;;;21.20;57.10;;;;;;5095105;27;20031;-53
2021/10/10 04:34:01;;;;;;;;;;;21.20;57.20;;;;;;5074366;28;20879;-55
2021/10/10 04:36:34;;;;;;;;;;;21.20;57.20;;;;;;5074834;28;19939;-55
2021/10/10 04:39:01;;;;;;;;;;;21.20;57.20;;;;;;5122531;27;19925;-56
2021/10/10 04:41:27;;;;;;;;;;;21.20;57.20;;;;;;5073260;28;19968;-55
2021/10/10 04:43:59;;;;;;;;;;;21.20;57.20;;;;;;5090220;28;19928;-58
2021/10/10 04:46:26;;;;;;;;;;;21.20;57.20;;;;;;5071763;28;19993;-56
2021/10/10 04:48:53;;;;;;;;;;;21.20;57.20;;;;;;5072747;28;19964;-56
2021/10/10 04:51:24;;;;;;;;;;;21.20;57.20;;;;;;5085704;28;19936;-57
2021/10/10 04:53:50;;;;;;;;;;;21.20;57.20;;;;;;5079602;28;19967;-57
2021/10/10 04:56:19;;;;;;;;;;;21.20;57.20;;;;;;5064558;28;19936;-55
2021/10/10 04:58:46;;;;;;;;;;;21.20;57.20;;;;;;5062917;28;19924;-58
2021/10/10 05:01:13;;;;;;;;;;;21.20;57.20;;;;;;5069013;28;19924;-58
2021/10/10 05:03:41;;;;;;;;;;;21.20;57.20;;;;;;5063285;28;19950;-56
2021/10/10 05:06:08;;;;;;;;;;;21.20;57.20;;;;;;5073946;28;19982;-57
2021/10/10 05:08:35;;;;;;;;;;;21.20;57.20;;;;;;5073943;28;20315;-56
2021/10/10 05:11:02;;;;;;;;;;;21.20;57.20;;;;;;5073387;28;19936;-58
2021/10/10 05:13:29;;;;;;;;;;;21.20;57.20;;;;;;5089220;28;20435;-53
2021/10/10 05:15:56;;;;;;;;;;;21.20;57.10;;;;;;5075222;28;20000;-55
2021/10/10 05:18:23;;;;;;;;;;;21.20;57.20;;;;;;5072187;28;19924;-57
2021/10/10 05:20:50;;;;;;;;;;;21.20;57.10;;;;;;5071990;28;19951;-56
2021/10/10 05:23:17;;;;;;;;;;;21.20;57.10;;;;;;5073608;28;19924;-56
2021/10/10 05:25:44;;;;;;;;;;;21.20;57.10;;;;;;5071965;28;20011;-54
2021/10/10 05:28:10;;;;;;;;;;;21.20;57.10;;;;;;5070654;28;19924;-52
2021/10/10 05:30:37;;;;;;;;;;;21.20;57.10;;;;;;5073408;28;19925;-56
2021/10/10 05:33:04;;;;;;;;;;;21.20;57.10;;;;;;5071771;28;20380;-53
2021/10/10 05:35:32;;;;;;;;;;;21.20;57.10;;;;;;5055593;28;19925;-55
2021/10/10 05:37:59;;;;;;;;;;;21.20;57.10;;;;;;5072437;28;20024;-58
2021/10/10 05:40:26;;;;;;;;;;;21.20;57.10;;;;;;5073680;28;19931;-56
2021/10/10 05:42:53;;;;;;;;;;;21.20;57.10;;;;;;5074298;28;19951;-55
2021/10/10 05:45:20;;;;;;;;;;;21.20;57.10;;;;;;5071816;28;20012;-55
2021/10/10 05:47:47;;;;;;;;;;;21.20;57.10;;;;;;5071934;28;19924;-57
2021/10/10 05:50:14;;;;;;;;;;;21.20;57.10;;;;;;5071635;28;20000;-54
2021/10/10 05:52:41;;;;;;;;;;;21.20;57.10;;;;;;5070744;28;19933;-57
2021/10/10 05:55:09;;;;;;;;;;;21.20;57.10;;;;;;5074994;28;19928;-53
2021/10/10 05:57:46;;;;;;;;;;;21.20;57.00;;;;;;5084769;28;19970;-54
2021/10/10 06:00:14;;;;;;;;;;;21.20;57.00;;;;;;5071641;28;19960;-55
2021/10/10 06:02:42;;;;;;;;;;;21.20;56.90;;;;;;5072945;28;19924;-58
2021/10/10 06:05:10;;;;;;;;;;;21.20;56.90;;;;;;5071762;28;19932;-57
2021/10/10 06:07:37;;;;;;;;;;;21.30;57.00;;;;;;5070989;28;19924;-53
2021/10/10 06:10:06;;;;;;;;;;;21.30;57.00;;;;;;5071628;28;20330;-53
2021/10/10 06:12:34;;;;;;;;;;;21.30;56.90;;;;;;5104239;28;19924;-54
2021/10/10 06:15:02;;;;;;;;;;;21.30;56.90;;;;;;5072059;28;19928;-57
2021/10/10 06:17:30;;;;;;;;;;;21.30;56.90;;;;;;5062597;28;19924;-57
2021/10/10 06:19:57;;;;;;;;;;;21.30;56.90;;;;;;5063832;28;19925;-59
2021/10/10 06:22:24;;;;;;;;;;;21.30;56.90;;;;;;5078027;28;19970;-56
2021/10/10 06:24:51;;;;;;;;;;;21.30;56.80;;;;;;5084087;28;20330;-56
2021/10/10 06:27:18;;;;;;;;;;;21.30;56.80;;;;;;5073730;28;20092;-57
2021/10/10 06:29:45;;;;;;;;;;;21.30;56.70;;;;;;5088490;28;19925;-55
2021/10/10 06:32:12;;;;;;;;;;;21.30;56.70;;;;;;5070734;28;20445;-56
2021/10/10 06:34:40;;;;;;;;;;;21.30;56.70;;;;;;5071809;28;19932;-56
2021/10/10 06:37:08;;;;;;;;;;;21.30;56.70;;;;;;5086964;28;19924;-56
2021/10/10 06:39:35;;;;;;;;;;;21.30;56.60;;;;;;5061528;28;20012;-56
2021/10/10 06:42:03;;;;;;;;;;;21.40;56.70;;;;;;5068233;28;19924;-56
2021/10/10 06:44:30;;;;;;;;;;;21.40;56.60;;;;;;5080882;28;19950;-58
2021/10/10 06:46:57;;;;;;;;;;;21.40;56.60;;;;;;5084852;28;20136;-56
2021/10/10 06:49:24;;;;;;;;;;;21.40;56.50;;;;;;5074646;28;19924;-56
2021/10/10 06:51:51;;;;;;;;;;;21.40;56.50;;;;;;5079048;28;20383;-58
2021/10/10 06:54:18;;;;;;;;;;;21.40;56.50;;;;;;5089464;28;20031;-56
2021/10/10 06:56:45;;;;;;;;;;;21.40;56.50;;;;;;5069451;28;20408;-56
2021/10/10 06:59:12;;;;;;;;;;;21.40;56.50;;;;;;5057124;28;19956;-57
2021/10/10 07:01:40;;;;;;;;;;;21.40;56.50;;;;;;5075034;28;20285;-55
2021/10/10 07:04:07;;;;;;;;;;;21.40;56.50;;;;;;5059121;28;19968;-55
2021/10/10 07:06:34;;;;;;;;;;;21.40;56.50;;;;;;5074012;28;19929;-58
2021/10/10 07:09:01;;;;;;;;;;;21.40;56.50;;;;;;5076013;28;19962;-55
2021/10/10 07:11:28;;;;;;;;;;;21.40;56.40;;;;;;5074871;28;20383;-57
2021/10/10 07:13:55;;;;;;;;;;;21.40;56.40;;;;;;5074380;28;19924;-55
2021/10/10 07:16:32;;;;;;;;;;;21.40;56.40;;;;;;5069704;28;19971;-56
2021/10/10 07:19:00;;;;;;;;;;;21.40;56.50;;;;;;5063296;28;19924;-57
2021/10/10 07:26:58;;;;;;;;;;;21.40;56.40;;;;;;5075407;28;19982;-52
2021/10/10 07:29:25;;;;;;;;;;;21.40;56.40;;;;;;5074209;28;19925;-58
2021/10/10 07:31:51;;;;;;;;;;;21.40;56.30;;;;;;5074073;28;19978;-58
2021/10/10 07:34:19;;;;;;;;;;;21.40;56.30;;;;;;5092424;28;19928;-58
2021/10/10 07:36:46;;;;;;;;;;;21.40;56.30;;;;;;5057011;28;19925;-57
2021/10/10 07:39:13;;;;;;;;;;;21.40;56.30;;;;;;5074037;28;19924;-58
2021/10/10 07:41:40;;;;;;;;;;;21.50;56.30;;;;;;5075206;28;19925;-54
2021/10/10 07:44:11;;;;;;;;;;;21.50;56.30;;;;;;5073495;28;20015;-56
2021/10/10 07:46:42;;;;;;;;;;;21.40;56.20;;;;;;5072848;28;20012;-58
2021/10/10 07:49:10;;;;;;;;;;;21.40;56.20;;;;;;5073949;28;19925;-57
2021/10/10 07:51:37;;;;;;;;;;;21.50;56.20;;;;;;5072852;28;20016;-53
2021/10/10 07:54:04;;;;;;;;;;;21.50;56.20;;;;;;5074882;28;19925;-56
2021/10/10 07:56:31;;;;;;;;;;;21.50;56.10;;;;;;5073360;28;19936;-58
2021/10/10 07:58:58;;;;;;;;;;;21.50;56.00;;;;;;5073762;28;19925;-57
2021/10/10 08:01:25;;;;;;;;;;;21.60;56.10;;;;;;5074003;28;20010;-59
2021/10/10 08:03:52;;;;;;;;;;;21.60;56.10;;;;;;5073632;28;19968;-55
2021/10/10 08:06:19;;;;;;;;;;;21.50;56.00;;;;;;5057699;28;20291;-56
2021/10/10 08:08:46;;;;;;;;;;;21.60;56.00;;;;;;5074424;28;19931;-58
2021/10/10 08:11:13;;;;;;;;;;;21.60;56.00;;;;;;5075813;28;19974;-58
2021/10/10 08:13:40;;;;;;;;;;;21.60;56.00;;;;;;5072375;28;19964;-52
2021/10/10 08:16:07;;;;;;;;;;;21.60;56.00;;;;;;5072166;28;20276;-56
2021/10/10 08:18:34;;;;;;;;;;;21.60;56.00;;;;;;5072143;28;19929;-57
2021/10/10 08:21:02;;;;;;;;;;;21.60;55.90;;;;;;5072921;28;19924;-58
2021/10/10 08:23:29;;;;;;;;;;;21.60;55.90;;;;;;5075296;28;19924;-54
2021/10/10 08:25:56;;;;;;;;;;;21.60;55.90;;;;;;5072100;28;19932;-56
2021/10/10 08:28:25;;;;;;;;;;;21.60;55.90;;;;;;5074660;28;20323;-54
2021/10/10 08:30:52;;;;;;;;;;;21.60;55.80;;;;;;5055775;28;19925;-55
2021/10/10 08:33:19;;;;;;;;;;;21.60;55.80;;;;;;5074326;28;19935;-58
2021/10/10 08:36:16;;;;;;;;;;;21.60;55.70;;;;;;5087251;28;19970;-54
2021/10/10 08:38:44;;;;;;;;;;;21.60;55.70;;;;;;5071846;28;20422;-58
2021/10/10 08:41:14;;;;;;;;;;;21.70;55.70;;;;;;5071768;28;19928;-56
2021/10/10 08:43:45;;;;;;;;;;;21.70;55.70;;;;;;5072524;28;20003;-54
2021/10/10 08:46:14;;;;;;;;;;;21.70;55.70;;;;;;5072517;28;19960;-57
2021/10/10 08:48:41;;;;;;;;;;;21.70;55.70;;;;;;5072625;28;19997;-56
2021/10/10 08:51:08;;;;;;;;;;;21.70;55.60;;;;;;5072563;28;19928;-56
2021/10/10 08:53:55;;;;;;;;;;;21.70;55.60;;;;;;5071538;28;19931;-56
2021/10/10 08:56:22;;;;;;;;;;;21.70;55.60;;;;;;5072087;28;19960;-55
2021/10/10 08:58:49;;;;;;;;;;;21.70;55.50;;;;;;5071209;28;19960;-57
2021/10/10 09:01:17;;;;;;;;;;;21.70;55.50;;;;;;5073766;28;19974;-58
2021/10/10 09:03:53;;;;;;;;;;;21.70;55.50;;;;;;5071607;28;20012;-56
2021/10/10 09:06:20;;;;;;;;;;;21.70;55.50;;;;;;5058149;28;19928;-54
2021/10/10 09:08:47;;;;;;;;;;;21.80;55.60;;;;;;5071339;28;20031;-54
2021/10/10 09:11:14;;;;;;;;;;;21.70;55.50;;;;;;5070679;28;19925;-57
2021/10/10 09:13:41;;;;;;;;;;;21.70;55.40;;;;;;5073915;28;19929;-54
2021/10/10 09:16:09;;;;;;;;;;;21.70;55.50;;;;;;5073244;28;20289;-58
2021/10/10 09:18:40;;;;;;;;;;;21.70;55.40;;;;;;5062130;28;20277;-55
2021/10/10 09:21:14;;;;;;;;;;;21.70;55.40;;;;;;5075712;28;19970;-55
2021/10/10 09:23:44;;;;;;;;;;;21.70;55.50;;;;;;5080672;28;20026;-58
2021/10/10 09:26:11;;;;;;;;;;;21.70;55.60;;;;;;5070555;28;19964;-56
2021/10/10 09:28:39;;;;;;;;;;;21.70;55.50;;;;;;5068864;28;19980;-58
2021/10/10 09:31:07;;;;;;;;;;;21.70;55.50;;;;;;5088731;28;20016;-58
2021/10/10 09:33:35;;;;;;;;;;;21.70;55.50;;;;;;5056559;28;20409;-58
2021/10/10 09:36:10;;;;;;;;;;;21.70;55.50;;;;;;5070667;28;20438;-57
2021/10/10 09:38:46;;;;;;;;;;;21.70;55.50;;;;;;5054569;28;19924;-57
2021/10/10 09:41:39;;;;;;;;;;;21.70;55.50;;;;;;5072333;28;19982;-55
2021/10/10 09:44:18;;;;;;;;;;;21.70;55.50;;;;;;5054729;28;19978;-56
2021/10/10 09:46:46;;;;;;;;;;;21.70;55.50;;;;;;5056082;28;19974;-58
2021/10/10 09:49:33;;;;;;;;;;;21.70;55.50;;;;;;5071648;28;20388;-57
2021/10/10 09:52:09;;;;;;;;;;;21.70;55.50;;;;;;5054896;28;19925;-58
2021/10/10 09:54:49;;;;;;;;;;;21.70;55.50;;;;;;5054734;28;19937;-55
2021/10/10 09:57:16;;;;;;;;;;;21.70;55.50;;;;;;5070877;28;20010;-56
2021/10/10 09:59:43;;;;;;;;;;;21.70;55.50;;;;;;5072046;28;19928;-57
2021/10/10 10:02:10;;;;;;;;;;;21.70;55.50;;;;;;5071964;28;20287;-56
2021/10/10 10:04:47;;;;;;;;;;;21.70;55.40;;;;;;5071827;28;19960;-51
2021/10/10 10:07:16;;;;;;;;;;;21.70;55.40;;;;;;5060796;28;19979;-56
2021/10/10 10:09:49;;;;;;;;;;;21.70;56.00;;;;;;5065605;28;19947;-57
2021/10/10 10:12:18;;;;;;;;;;;21.70;55.40;;;;;;5081007;28;19928;-54
2021/10/10 10:14:49;;;;;;;;;;;21.70;55.40;;;;;;5075657;28;19924;-54
2021/10/10 10:17:17;;;;;;;;;;;21.70;55.30;;;;;;5056053;28;19925;-54
2021/10/10 10:19:45;;;;;;;;;;;21.70;55.40;;;;;;5056891;28;19968;-54
2021/10/10 10:22:13;;;;;;;;;;;21.70;55.30;;;;;;5062433;28;20356;-58
2021/10/10 10:24:42;;;;;;;;;;;21.70;55.30;;;;;;5075273;28;20277;-58
2021/10/10 10:27:09;;;;;;;;;;;21.70;55.30;;;;;;5075170;28;19955;-57
2021/10/10 10:29:38;;;;;;;;;;;21.70;55.30;;;;;;5107821;28;19925;-55
2021/10/10 10:32:06;;;;;;;;;;;21.70;55.30;;;;;;5068541;28;20419;-54
2021/10/10 10:34:33;;;;;;;;;;;21.70;55.30;;;;;;5073453;28;19925;-55
2021/10/10 10:37:00;;;;;;;;;;;21.70;55.20;;;;;;5063407;28;19924;-56
2021/10/10 10:39:33;;;;;;;;;;;21.70;55.20;;;;;;5101706;28;19924;-58
2021/10/10 10:42:23;;;;;;;;;;;21.70;55.20;;;;;;5059549;28;19998;-57
2021/10/10 10:44:51;;;;;;;;;;;21.70;55.20;;;;;;5080824;28;19967;-57
2021/10/10 10:47:19;;;;;;;;;;;21.70;55.30;;;;;;5082654;28;19974;-58
2021/10/10 10:49:57;;;;;;;;;;;21.70;55.20;;;;;;5080755;28;20011;-56
2021/10/10 10:52:30;;;;;;;;;;;21.70;55.20;;;;;;5086410;28;19939;-55
2021/10/10 10:55:16;;;;;;;;;;;21.70;55.20;;;;;;5070816;28;19956;-55
2021/10/10 10:58:10;;;;;;;;;;;21.70;55.20;;;;;;5060484;28;19924;-55
2021/10/10 11:00:41;;;;;;;;;;;21.70;55.20;;;;;;5065680;28;19964;-58
2021/10/10 11:03:21;;;;;;;;;;;21.60;55.10;;;;;;5073453;28;19930;-57
2021/10/10 11:05:55;;;;;;;;;;;21.70;55.20;;;;;;5080414;28;20018;-57
2021/10/10 11:08:22;;;;;;;;;;;21.70;55.20;;;;;;5087075;28;19971;-58
2021/10/10 11:11:04;;;;;;;;;;;21.70;55.20;;;;;;5073489;28;20372;-55
2021/10/10 11:13:34;;;;;;;;;;;21.70;55.10;;;;;;5059529;28;19967;-54
2021/10/10 11:16:12;;;;;;;;;;;21.70;55.10;;;;;;5073743;28;19932;-54
2021/10/10 11:18:44;;;;;;;;;;;21.70;55.70;;;;;;5057807;28;19951;-56
2021/10/10 11:21:12;;;;;;;;;;;21.70;55.10;;;;;;5055913;28;19928;-58
2021/10/10 11:23:39;;;;;;;;;;;21.70;55.10;;;;;;5074041;28;19963;-58
2021/10/10 11:26:08;;;;;;;;;;;21.70;55.10;;;;;;5074057;28;19925;-55
2021/10/10 11:28:45;;;;;;;;;;;21.70;55.10;;;;;;5075604;28;19966;-54
2021/10/10 11:31:18;;;;;;;;;;;21.70;55.00;;;;;;5073803;28;19929;-55
2021/10/10 11:33:55;;;;;;;;;;;21.70;55.00;;;;;;5076554;28;19929;-56
2021/10/10 11:36:35;;;;;;;;;;;21.70;55.00;;;;;;5074924;28;20012;-57
2021/10/10 11:39:07;;;;;;;;;;;21.70;55.00;;;;;;5075526;28;19982;-57
2021/10/10 11:41:42;;;;;;;;;;;21.70;55.00;;;;;;5065681;28;19928;-58
2021/10/10 11:44:12;;;;;;;;;;;21.70;55.00;;;;;;5067373;28;19929;-56
2021/10/10 11:46:41;;;;;;;;;;;21.70;55.00;;;;;;5074255;28;19928;-58
2021/10/10 11:49:29;;;;;;;;;;;21.70;54.90;;;;;;5072491;28;19924;-57
2021/10/10 11:52:04;;;;;;;;;;;21.70;55.00;;;;;;5074203;28;19970;-56
2021/10/10 11:54:41;;;;;;;;;;;21.70;55.00;;;;;;5072895;28;20338;-56
2021/10/10 11:57:09;;;;;;;;;;;21.70;54.90;;;;;;5077819;28;19986;-54
2021/10/10 11:59:37;;;;;;;;;;;21.70;54.80;;;;;;5116755;27;19960;-56
2021/10/10 12:02:04;;;;;;;;;;;21.70;54.80;;;;;;5059100;28;19932;-56
2021/10/10 12:04:31;;;;;;;;;;;21.70;54.80;;;;;;5074936;28;19924;-56
2021/10/10 12:06:58;;;;;;;;;;;21.70;54.80;;;;;;5073559;28;20376;-55
2021/10/10 12:09:25;;;;;;;;;;;21.70;54.80;;;;;;5072759;28;20427;-57
2021/10/10 12:12:05;;;;;;;;;;;21.70;54.80;;;;;;5058596;28;19948;-57
2021/10/10 12:14:42;;;;;;;;;;;21.70;54.80;;;;;;5072712;28;19924;-57
2021/10/10 12:17:09;;;;;;;;;;;21.70;54.80;;;;;;5082942;28;19974;-56
2021/10/10 12:19:43;;;;;;;;;;;21.80;54.90;;;;;;5072968;28;20438;-55
2021/10/10 12:22:10;;;;;;;;;;;21.70;54.70;;;;;;5073993;28;19931;-56
2021/10/10 12:24:44;;;;;;;;;;;21.80;54.80;;;;;;5073034;28;19924;-55
2021/10/10 12:27:11;;;;;;;;;;;21.80;54.80;;;;;;5074063;28;19967;-54
2021/10/10 12:29:44;;;;;;;;;;;21.80;54.70;;;;;;5066748;28;20292;-57
2021/10/10 12:32:19;;;;;;;;;;;21.80;54.70;;;;;;5061891;28;20332;-58
2021/10/10 12:34:47;;;;;;;;;;;21.80;54.70;;;;;;5069619;28;19925;-57
2021/10/10 12:37:20;;;;;;;;;;;21.80;54.70;;;;;;5063432;28;19928;-56
2021/10/10 12:39:48;;;;;;;;;;;21.80;54.70;;;;;;5088782;28;19924;-59
2021/10/10 12:42:18;;;;;;;;;;;21.70;54.70;;;;;;5073817;28;20323;-54
2021/10/10 12:45:21;;;;;;;;;;;21.80;54.80;;;;;;5056669;28;19929;-58
2021/10/10 12:47:56;;;;;;;;;;;21.80;54.80;;;;;;5051883;28;19924;-58
2021/10/10 12:50:23;;;;;;;;;;;21.80;54.70;;;;;;5050328;28;19925;-56
2021/10/10 12:52:50;;;;;;;;;;;21.70;54.70;;;;;;5033853;28;19969;-57
2021/10/10 12:55:20;;;;;;;;;;;21.80;54.70;;;;;;5032729;28;19939;-54
2021/10/10 12:57:52;;;;;;;;;;;21.80;54.70;;;;;;5049686;28;19925;-58
2021/10/10 13:00:19;;;;;;;;;;;21.80;54.70;;;;;;5036656;28;20096;-56
2021/10/10 13:02:48;;;;;;;;;;;21.80;54.70;;;;;;5036106;28;19925;-53
2021/10/10 13:05:19;;;;;;;;;;;21.80;54.70;;;;;;5054111;28;20362;-56
2021/10/10 13:07:47;;;;;;;;;;;21.80;54.70;;;;;;5050369;28;19987;-54
2021/10/10 13:10:15;;;;;;;;;;;21.80;54.70;;;;;;5046625;28;19929;-54
2021/10/10 13:12:42;;;;;;;;;;;21.80;54.60;;;;;;5061313;28;20373;-55
2021/10/10 13:15:10;;;;;;;;;;;21.90;54.70;;;;;;5050031;28;19965;-58
2021/10/10 13:17:37;;;;;;;;;;;21.90;54.60;;;;;;5049432;28;19924;-55
2021/10/10 13:20:04;;;;;;;;;;;21.90;54.60;;;;;;5033958;28;20411;-58
2021/10/10 13:22:33;;;;;;;;;;;21.90;54.60;;;;;;5051996;28;20004;-56
2021/10/10 13:25:04;;;;;;;;;;;21.90;54.60;;;;;;5072604;28;19925;-57
2021/10/10 13:27:31;;;;;;;;;;;21.90;54.60;;;;;;5071877;28;19929;-57
2021/10/10 13:29:58;;;;;;;;;;;21.90;54.60;;;;;;5073534;28;19967;-58
2021/10/10 13:32:26;;;;;;;;;;;21.90;54.60;;;;;;5061244;28;19931;-56
2021/10/10 13:34:53;;;;;;;;;;;21.90;54.60;;;;;;5069389;28;19971;-56
2021/10/10 13:37:24;;;;;;;;;;;21.90;54.60;;;;;;5070585;28;19925;-58
2021/10/10 13:39:55;;;;;;;;;;;21.90;54.60;;;;;;5072435;28;20332;-58
2021/10/10 13:42:23;;;;;;;;;;;21.90;54.60;;;;;;5070903;28;19974;-56
2021/10/10 13:44:50;;;;;;;;;;;21.80;54.50;;;;;;5072000;28;19929;-58
2021/10/10 13:47:17;;;;;;;;;;;21.80;54.50;;;;;;5072520;28;19924;-56
2021/10/10 13:49:47;;;;;;;;;;;21.80;54.50;;;;;;5054628;28;19929;-58
2021/10/10 13:52:15;;;;;;;;;;;21.90;54.60;;;;;;5071539;28;20407;-57
2021/10/10 13:54:45;;;;;;;;;;;21.80;54.50;;;;;;5073194;28;20365;-56
2021/10/10 13:57:12;;;;;;;;;;;21.80;54.50;;;;;;5075568;28;20371;-59
2021/10/10 13:59:39;;;;;;;;;;;21.90;54.60;;;;;;5063067;28;19925;-58
2021/10/10 14:02:06;;;;;;;;;;;21.90;54.70;;;;;;5103732;28;20330;-58
2021/10/10 14:04:33;;;;;;;;;;;21.80;54.50;;;;;;5075956;28;19978;-56
2021/10/10 14:07:00;;;;;;;;;;;21.80;54.50;;;;;;5078371;28;19924;-55
2021/10/10 14:09:27;;;;;;;;;;;21.80;54.50;;;;;;5075926;28;19924;-56
2021/10/10 14:11:54;;;;;;;;;;;21.80;54.50;;;;;;5078410;28;19924;-58
2021/10/10 14:14:21;;;;;;;;;;;21.90;54.60;;;;;;5075375;28;20029;-57
2021/10/10 14:16:48;;;;;;;;;;;21.90;54.60;;;;;;5108469;28;19947;-57
2021/10/10 14:19:15;;;;;;;;;;;21.80;54.60;;;;;;5058259;28;19931;-57
2021/10/10 14:21:42;;;;;;;;;;;21.80;55.20;;;;;;5075416;28;19924;-56
2021/10/10 14:24:09;;;;;;;;;;;21.80;54.70;;;;;;5061928;28;19924;-55
2021/10/10 14:26:36;;;;;;;;;;;21.80;54.70;;;;;;5075424;28;19925;-55
2021/10/10 14:29:03;;;;;;;;;;;21.80;54.60;;;;;;5081153;28;19932;-57
2021/10/10 14:31:31;;;;;;;;;;;21.80;54.70;;;;;;5080043;28;20427;-56
2021/10/10 14:33:58;;;;;;;;;;;21.80;54.70;;;;;;5076865;28;20214;-55